createdAt,value
2022-12-28T00:03:53.188Z,-10.08
2022-12-28T00:08:57.472Z,-9.98
2022-12-28T00:14:01.674Z,-9.94
2022-12-28T00:19:05.294Z,-9.88
2022-12-28T00:24:09.030Z,-9.81
2022-12-28T00:29:12.259Z,-9.76
2022-12-28T00:34:15.034Z,-9.76
2022-12-28T00:39:18.222Z,-9.57
2022-12-28T00:44:20.882Z,-9.49
2022-12-28T00:49:24.738Z,-9.46
2022-12-28T00:54:29.523Z,-9.46
2022-12-28T00:59:32.198Z,-9.47
2022-12-28T01:04:35.521Z,-9.50
2022-12-28T01:09:38.203Z,-9.59
2022-12-28T01:14:40.878Z,-9.59
2022-12-28T01:19:46.221Z,-9.57
2022-12-28T01:24:52.947Z,-9.69
2022-12-28T01:29:56.061Z,-9.69
2022-12-28T01:34:58.782Z,-9.59
2022-12-28T01:40:01.564Z,-9.57
2022-12-28T01:45:35.957Z,-9.63
2022-12-28T01:50:38.638Z,-9.74
2022-12-28T01:55:43.378Z,-9.89
2022-12-28T02:00:46.101Z,-9.99
2022-12-28T02:05:53.168Z,-10.08
2022-12-28T02:10:56.699Z,-9.96
2022-12-28T02:15:59.441Z,-9.86
2022-12-28T02:21:11.029Z,-9.83
2022-12-28T02:26:16.449Z,-9.83
2022-12-28T02:31:26.872Z,-9.95
2022-12-28T02:36:35.454Z,-10.01
2022-12-28T02:41:39.517Z,-10.11
2022-12-28T02:47:00.521Z,-10.07
2022-12-28T02:52:38.595Z,-10.07
2022-12-28T02:58:38.330Z,-10.10
2022-12-28T03:03:55.534Z,-10.00
2022-12-28T03:09:11.520Z,-9.99
2022-12-28T03:14:19.369Z,-9.95
2022-12-28T03:19:43.047Z,-9.94
2022-12-28T03:25:04.566Z,-9.84
2022-12-28T03:30:33.584Z,-9.74
2022-12-28T03:35:44.697Z,-9.67
2022-12-28T03:40:51.116Z,-9.63
2022-12-28T03:46:05.342Z,-9.52
2022-12-28T03:51:08.482Z,-9.43
2022-12-28T03:56:17.447Z,-9.61
2022-12-28T04:01:21.839Z,-9.36
2022-12-28T04:06:27.158Z,-9.28
2022-12-28T04:11:30.415Z,-9.22
2022-12-28T04:16:34.016Z,-9.22
2022-12-28T04:21:37.635Z,-9.07
2022-12-28T04:26:40.557Z,-9.08
2022-12-28T04:31:45.573Z,-9.10
2022-12-28T04:36:52.420Z,-9.07
2022-12-28T04:41:57.513Z,-9.16
2022-12-28T04:47:00.199Z,-9.36
2022-12-28T04:52:02.886Z,-9.46
2022-12-28T04:57:05.763Z,-9.40
2022-12-28T05:02:08.723Z,-9.36
2022-12-28T05:07:11.638Z,-9.28
2022-12-28T05:12:14.367Z,-9.20
2022-12-28T05:17:17.025Z,-9.16
2022-12-28T05:22:19.788Z,-9.18
2022-12-28T05:27:22.473Z,-9.05
2022-12-28T05:32:25.194Z,-8.87
2022-12-28T05:37:28.020Z,-8.71
2022-12-28T05:42:30.710Z,-8.55
2022-12-28T05:47:33.429Z,-8.45
2022-12-28T05:52:38.621Z,-8.40
2022-12-28T05:57:41.559Z,-8.32
2022-12-28T06:02:44.331Z,-8.28
2022-12-28T06:07:46.976Z,-8.17
2022-12-28T06:12:49.758Z,-8.18
2022-12-28T06:17:53.943Z,-8.10
2022-12-28T06:22:56.595Z,-8.09
2022-12-28T06:27:59.490Z,-7.98
2022-12-28T06:33:02.224Z,-7.91
2022-12-28T06:38:04.875Z,-8.11
2022-12-28T06:43:07.672Z,-8.07
2022-12-28T06:48:10.339Z,-8.09
2022-12-28T06:53:12.992Z,-8.23
2022-12-28T06:58:15.671Z,-8.12
2022-12-28T07:03:18.471Z,-8.01
2022-12-28T07:08:21.242Z,-8.04
2022-12-28T07:13:28.151Z,-8.08
2022-12-28T07:18:32.085Z,-8.01
2022-12-28T07:23:35.671Z,-7.95
2022-12-28T07:28:39.917Z,-7.93
2022-12-28T07:33:43.378Z,-7.91
2022-12-28T07:38:46.472Z,-7.93
2022-12-28T07:43:49.288Z,-7.89
2022-12-28T07:48:52.389Z,-7.94
2022-12-28T07:53:56.406Z,-7.97
2022-12-28T07:59:01.754Z,-8.07
2022-12-28T08:04:07.358Z,-7.96
2022-12-28T08:09:11.592Z,-7.97
2022-12-28T08:14:14.318Z,-7.99
2022-12-28T08:19:16.915Z,-8.01
2022-12-28T08:24:20.826Z,-8.05
2022-12-28T08:29:23.581Z,-8.06
2022-12-28T08:34:27.592Z,-8.06
2022-12-28T08:39:30.498Z,-8.12
2022-12-28T08:44:33.199Z,-8.21
2022-12-28T08:49:36.234Z,-8.22
2022-12-28T08:54:39.002Z,-8.26
2022-12-28T08:59:41.707Z,-8.29
2022-12-28T09:04:44.856Z,-8.26
2022-12-28T09:09:47.574Z,-8.34
2022-12-28T09:14:50.351Z,-8.56
2022-12-28T09:19:53.278Z,-8.55
2022-12-28T09:24:56.113Z,-8.63
2022-12-28T09:29:58.810Z,-8.63
2022-12-28T09:35:01.519Z,-8.71
2022-12-28T09:40:05.982Z,-8.80
2022-12-28T09:45:11.631Z,-8.92
2022-12-28T09:50:17.482Z,-8.93
2022-12-28T09:55:21.049Z,-8.99
2022-12-28T10:00:26.617Z,-9.03
2022-12-28T10:05:30.185Z,-9.03
2022-12-28T10:10:33.013Z,-9.03
2022-12-28T10:15:35.722Z,-9.07
2022-12-28T10:20:38.502Z,-9.14
2022-12-28T10:25:41.137Z,-9.20
2022-12-28T10:31:08.535Z,-9.34
2022-12-28T10:36:14.017Z,-9.42
2022-12-28T10:41:17.625Z,-9.50
2022-12-28T10:46:24.590Z,-9.56
2022-12-28T10:51:28.665Z,-9.65
2022-12-28T10:56:33.026Z,-9.79
2022-12-28T11:01:36.361Z,-9.84
2022-12-28T11:07:03.061Z,-9.86
2022-12-28T11:12:27.020Z,-9.88
2022-12-28T11:17:29.701Z,-9.92
2022-12-28T11:22:32.642Z,-9.95
2022-12-28T11:27:36.631Z,-10.01
2022-12-28T11:32:52.993Z,-10.05
2022-12-28T11:38:03.695Z,-10.09
2022-12-28T11:43:06.398Z,-10.12
2022-12-28T11:48:44.311Z,-10.14
2022-12-28T11:53:46.962Z,-10.20
2022-12-28T11:58:58.861Z,-10.24
2022-12-28T12:04:01.490Z,-10.24
2022-12-28T12:09:04.182Z,-10.24
2022-12-28T12:14:08.441Z,-10.27
2022-12-28T12:19:14.499Z,-10.33
2022-12-28T12:24:27.117Z,-10.32
2022-12-28T12:29:37.207Z,-10.37
2022-12-28T12:34:46.736Z,-10.26
2022-12-28T12:40:10.835Z,-10.31
2022-12-28T12:45:28.644Z,-10.28
2022-12-28T12:51:06.171Z,-10.29
2022-12-28T12:56:19.371Z,-10.25
2022-12-28T13:01:28.341Z,-10.22
2022-12-28T13:06:31.619Z,-10.35
2022-12-28T13:11:37.763Z,-10.24
2022-12-28T13:16:40.486Z,-10.35
2022-12-28T13:21:46.981Z,-10.41
2022-12-28T13:26:50.346Z,-10.37
2022-12-28T13:31:53.155Z,-10.37
2022-12-28T13:37:01.296Z,-10.51
2022-12-28T13:42:28.805Z,-10.35
2022-12-28T13:47:35.746Z,-10.43
2022-12-28T13:52:42.738Z,-10.40
2022-12-28T13:57:52.670Z,-10.41
2022-12-28T14:02:59.324Z,-10.67
2022-12-28T14:08:03.041Z,-10.76
2022-12-28T14:13:05.971Z,-10.46
2022-12-28T14:18:09.179Z,-10.43
2022-12-28T14:23:23.346Z,-10.43
2022-12-28T14:28:25.950Z,-10.48
2022-12-28T14:33:30.292Z,-10.48
2022-12-28T14:38:35.226Z,-10.46
2022-12-28T14:43:38.081Z,-10.48
2022-12-28T14:48:40.940Z,-10.56
2022-12-28T14:53:44.347Z,-10.60
2022-12-28T14:58:58.036Z,-10.58
2022-12-28T15:04:05.684Z,-10.80
2022-12-28T15:09:09.326Z,-10.72
2022-12-28T15:14:12.173Z,-10.76
2022-12-28T15:19:14.874Z,-10.77
2022-12-28T15:24:21.013Z,-10.84
2022-12-28T15:29:39.974Z,-10.81
2022-12-28T15:34:48.189Z,-10.87
2022-12-28T15:39:51.115Z,-11.12
2022-12-28T15:44:54.266Z,-11.22
2022-12-28T15:49:59.672Z,-11.33
2022-12-28T15:55:02.649Z,-11.40
2022-12-28T16:00:06.685Z,-11.38
2022-12-28T16:05:09.875Z,-11.49
2022-12-28T16:10:12.649Z,-11.55
2022-12-28T16:15:15.680Z,-11.66
2022-12-28T16:20:19.250Z,-11.74
2022-12-28T16:25:21.973Z,-11.86
2022-12-28T16:30:24.630Z,-11.99
2022-12-28T16:35:30.002Z,-12.27
2022-12-28T16:40:33.031Z,-12.18
2022-12-28T16:45:40.447Z,-12.22
2022-12-28T16:50:43.256Z,-12.24
2022-12-28T16:55:45.953Z,-12.22
2022-12-28T17:00:48.739Z,-12.37
2022-12-28T17:05:52.896Z,-12.51
2022-12-28T17:10:55.604Z,-12.55
2022-12-28T17:16:00.841Z,-12.61
2022-12-28T17:21:07.026Z,-12.65
2022-12-28T17:26:09.992Z,-12.76
2022-12-28T17:31:17.886Z,-12.76
2022-12-28T17:36:20.938Z,-12.68
2022-12-28T17:41:26.143Z,-12.55
2022-12-28T17:46:30.241Z,-12.51
2022-12-28T17:51:33.285Z,-12.52
2022-12-28T17:56:36.400Z,-12.47
2022-12-28T18:01:39.160Z,-12.48
2022-12-28T18:06:41.967Z,-12.45
2022-12-28T18:11:44.751Z,-12.42
2022-12-28T18:16:48.044Z,-12.37
2022-12-28T18:21:50.854Z,-12.43
2022-12-28T18:26:53.522Z,-12.36
2022-12-28T18:31:56.253Z,-12.39
2022-12-28T18:36:59.049Z,-12.42
2022-12-28T18:42:03.244Z,-12.45
2022-12-28T18:47:06.009Z,-12.54
2022-12-28T18:52:09.178Z,-12.69
2022-12-28T18:57:12.060Z,-12.63
2022-12-28T19:02:19.488Z,-12.64
2022-12-28T19:07:22.588Z,-12.67
2022-12-28T19:12:25.212Z,-12.66
2022-12-28T19:17:28.032Z,-12.67
2022-12-28T19:22:30.764Z,-12.62
2022-12-28T19:27:33.679Z,-12.69
2022-12-28T19:32:36.381Z,-12.79
2022-12-28T19:37:39.581Z,-12.86
2022-12-28T19:42:42.812Z,-13.05
2022-12-28T19:47:45.567Z,-12.96
2022-12-28T19:52:48.213Z,-12.98
2022-12-28T19:57:50.912Z,-13.18
2022-12-28T20:02:53.704Z,-13.09
2022-12-28T20:07:56.759Z,-12.99
2022-12-28T20:12:59.393Z,-12.99
2022-12-28T20:18:02.166Z,-13.03
2022-12-28T20:23:04.912Z,-13.13
2022-12-28T20:28:07.611Z,-13.19
2022-12-28T20:33:10.309Z,-13.28
2022-12-28T20:38:13.620Z,-13.27
2022-12-28T20:43:25.420Z,-13.26
2022-12-28T20:48:28.586Z,-13.33
2022-12-28T20:53:31.282Z,-13.38
2022-12-28T20:58:37.393Z,-13.53
2022-12-28T21:03:40.277Z,-13.55
2022-12-28T21:08:42.986Z,-13.63
2022-12-28T21:13:46.137Z,-13.42
2022-12-28T21:18:50.756Z,-13.29
2022-12-28T21:23:53.389Z,-13.28
2022-12-28T21:28:56.228Z,-13.16
2022-12-28T21:33:58.893Z,-13.21
2022-12-28T21:39:01.723Z,-13.17
2022-12-28T21:44:06.585Z,-13.19
2022-12-28T21:49:10.337Z,-13.34
2022-12-28T21:54:18.583Z,-13.44
2022-12-28T21:59:22.240Z,-13.38
2022-12-28T22:04:43.290Z,-13.41
2022-12-28T22:10:04.619Z,-13.51
2022-12-28T22:15:37.452Z,-13.49
2022-12-28T22:20:40.108Z,-13.40
2022-12-28T22:25:43.086Z,-13.40
2022-12-28T22:30:45.797Z,-13.41
2022-12-28T22:35:48.899Z,-13.44
2022-12-28T22:41:00.794Z,-13.38
2022-12-28T22:46:10.201Z,-13.29
2022-12-28T22:51:14.559Z,-13.30
2022-12-28T22:56:21.196Z,-13.28
2022-12-28T23:01:24.082Z,-13.33
2022-12-28T23:06:26.894Z,-13.37
2022-12-28T23:11:38.644Z,-13.50
2022-12-28T23:16:41.562Z,-13.62
2022-12-28T23:22:02.618Z,-13.93
2022-12-28T23:27:21.693Z,-14.17
2022-12-28T23:32:24.352Z,-14.33
2022-12-28T23:37:27.075Z,-14.43
2022-12-28T23:42:29.992Z,-14.71
2022-12-28T23:47:33.015Z,-14.60
2022-12-28T23:52:35.789Z,-14.81
2022-12-28T23:57:38.947Z,-15.09
